Time;durP1;ratioP1;P1;durP2;ratioP2;P2;SDS_P1;SDS_P2;PMS_P1;PMS_P2;Temp;Humidity;BMP_temperature;BMP_pressure;BME280_temperature;BME280_humidity;BME280_pressure;Samples;Min_cycle;Max_cycle;Signal;HPM_P1;HPM_P2
2023/05/05 04:45:06;;;;;;;9.90;4.50;;;;;;;10.31;100.00;100452.29;107987;1280;25932;-58
2023/05/05 04:47:37;;;;;;;8.20;4.20;;;;;;;10.35;100.00;100448.29;108684;1281;23036;-47
2023/05/05 04:50:05;;;;;;;15.30;4.80;;;;;;;10.41;100.00;100449.35;108408;1279;25329;-46
2023/05/05 04:52:33;;;;;;;12.30;4.10;;;;;;;10.48;100.00;100446.59;107486;1280;22324;-56
2023/05/05 04:55:00;;;;;;;14.80;4.90;;;;;;;10.58;100.00;100449.40;109621;1280;22211;-46
2023/05/05 04:57:28;;;;;;;18.10;4.70;;;;;;;10.71;99.68;100451.88;109933;1280;22779;-56
2023/05/05 04:59:55;;;;;;;15.20;4.30;;;;;;;10.87;98.21;100450.52;109846;1280;23133;-55
2023/05/05 05:02:22;;;;;;;10.20;4.00;;;;;;;11.06;96.53;100454.02;108460;1279;23072;-48
2023/05/05 05:04:49;;;;;;;9.20;3.60;;;;;;;11.23;94.70;100452.79;109772;1280;22293;-46
2023/05/05 05:07:16;;;;;;;22.60;4.30;;;;;;;11.41;92.66;100450.86;109891;1280;22234;-58
2023/05/05 05:09:43;;;;;;;6.20;3.80;;;;;;;11.59;91.35;100447.35;109900;1279;22632;-55
2023/05/05 05:12:10;;;;;;;12.80;4.00;;;;;;;11.76;90.64;100445.56;109881;1279;22421;-56
2023/05/05 05:14:38;;;;;;;15.50;4.10;;;;;;;11.90;90.36;100438.39;109895;1273;22386;-46
2023/05/05 05:17:05;;;;;;;9.30;3.80;;;;;;;12.08;90.38;100433.44;108270;1280;22528;-51
2023/05/05 05:19:34;;;;;;;14.80;6.60;;;;;;;12.25;89.68;100433.36;109294;1276;22377;-57
2023/05/05 05:22:01;;;;;;;9.70;4.30;;;;;;;12.42;89.32;100433.45;109782;1276;23161;-57
2023/05/05 05:24:29;;;;;;;17.40;5.40;;;;;;;12.59;89.11;100431.77;109715;1273;22461;-57
2023/05/05 05:26:57;;;;;;;16.80;4.70;;;;;;;12.75;88.86;100428.16;109557;1273;188797;-47
2023/05/05 05:29:25;;;;;;;12.30;4.40;;;;;;;12.95;88.77;100427.16;109076;1273;22552;-47
2023/05/05 05:31:55;;;;;;;9.50;4.80;;;;;;;13.15;88.23;100427.70;109420;1273;22957;-47
2023/05/05 05:34:38;;;;;;;14.00;5.30;;;;;;;13.33;87.88;100427.57;109118;1273;22295;-58
2023/05/05 05:37:12;;;;;;;10.30;4.80;;;;;;;13.56;87.25;100426.65;109254;1273;22562;-58
2023/05/05 05:39:53;;;;;;;11.10;5.40;;;;;;;13.78;86.28;100428.88;108785;1277;22571;-47
2023/05/05 05:42:21;;;;;;;10.10;5.80;;;;;;;13.98;85.42;100427.77;109436;1277;23082;-48
2023/05/05 05:44:48;;;;;;;11.00;5.00;;;;;;;14.16;84.66;100426.15;109280;1273;22811;-47
2023/05/05 05:47:16;;;;;;;12.00;5.00;;;;;;;14.32;84.17;100431.20;108673;1273;22581;-48
2023/05/05 05:49:44;;;;;;;15.70;5.60;;;;;;;14.45;83.80;100430.34;108113;1277;25406;-46
2023/05/05 05:52:11;;;;;;;14.30;6.00;;;;;;;14.58;83.53;100428.24;108870;1273;23481;-57
2023/05/05 05:54:39;;;;;;;11.20;5.60;;;;;;;14.75;83.43;100427.30;109523;1276;22733;-48
2023/05/05 05:57:06;;;;;;;11.70;5.30;;;;;;;14.94;82.76;100424.20;109500;1279;22402;-49
2023/05/05 05:59:35;;;;;;;13.50;5.70;;;;;;;15.11;82.23;100426.02;109316;1279;22526;-59
2023/05/05 06:02:03;;;;;;;10.40;5.90;;;;;;;15.27;82.34;100425.40;109189;1276;22323;-48
2023/05/05 06:04:31;;;;;;;12.50;5.60;;;;;;;15.42;81.80;100424.61;108670;1273;22500;-48
2023/05/05 06:06:59;;;;;;;9.30;5.50;;;;;;;15.55;81.44;100423.15;109594;1273;22421;-58
2023/05/05 06:09:27;;;;;;;10.30;5.50;;;;;;;15.71;80.97;100425.69;109354;1277;22415;-47
2023/05/05 06:11:54;;;;;;;11.20;5.80;;;;;;;15.87;80.07;100424.15;108863;1275;23245;-59
2023/05/05 06:14:21;;;;;;;12.80;4.90;;;;;;;16.01;79.32;100426.52;109240;1273;22445;-58
2023/05/05 06:16:49;;;;;;;12.70;5.20;;;;;;;16.14;78.17;100423.25;109202;1273;22966;-58
2023/05/05 06:19:21;;;;;;;13.40;6.10;;;;;;;16.26;76.83;100422.66;109327;1273;23613;-48
2023/05/05 06:21:49;;;;;;;12.60;5.40;;;;;;;16.36;76.67;100422.09;108850;1273;22439;-47
2023/05/05 06:24:24;;;;;;;7.40;4.60;;;;;;;16.49;76.14;100420.74;109371;1273;22500;-48
2023/05/05 06:27:02;;;;;;;8.80;5.40;;;;;;;16.60;75.58;100417.13;108952;1273;22959;-47
2023/05/05 06:29:42;;;;;;;11.60;5.10;;;;;;;16.72;73.89;100413.89;109311;1277;22367;-47
2023/05/05 06:32:19;;;;;;;10.70;5.40;;;;;;;16.83;71.77;100412.07;108523;1276;22400;-46
2023/05/05 06:38:25;;;;;;;11.00;5.50;;;;;;;17.03;68.86;100402.77;109646;1275;22136;-57
2023/05/05 06:41:20;;;;;;;10.40;4.90;;;;;;;17.18;69.41;100398.52;109562;1277;22189;-48
2023/05/05 06:43:59;;;;;;;14.60;4.80;;;;;;;17.34;70.20;100398.48;109219;1273;24244;-58
2023/05/05 06:46:26;;;;;;;8.60;5.50;;;;;;;17.47;69.49;100394.05;109656;1281;22231;-58
2023/05/05 06:48:54;;;;;;;8.80;5.00;;;;;;;17.59;69.74;100395.67;109660;1274;22419;-58
2023/05/05 06:51:31;;;;;;;16.10;5.20;;;;;;;17.75;69.33;100398.63;109448;1275;22509;-48
2023/05/05 06:54:01;;;;;;;14.50;4.80;;;;;;;17.85;68.23;100389.34;108950;1277;22416;-48
2023/05/05 06:56:29;;;;;;;10.30;4.70;;;;;;;17.95;69.01;100390.82;109591;1273;22427;-57
2023/05/05 06:58:56;;;;;;;8.90;4.40;;;;;;;18.09;68.08;100390.06;109809;1276;22360;-58
2023/05/05 07:01:23;;;;;;;12.60;5.50;;;;;;;18.21;66.33;100390.23;109713;1259;22457;-58
2023/05/05 07:03:51;;;;;;;10.40;4.80;;;;;;;18.33;65.54;100391.82;109237;1274;22811;-58
2023/05/05 07:06:18;;;;;;;10.20;4.20;;;;;;;18.47;64.86;100387.69;108937;1266;22198;-58
2023/05/05 07:08:46;;;;;;;8.40;4.30;;;;;;;18.62;64.43;100385.61;109560;1273;22246;-58
2023/05/05 07:11:15;;;;;;;7.10;4.10;;;;;;;18.80;62.28;100387.52;109210;1275;22620;-60
2023/05/05 07:13:45;;;;;;;9.70;4.40;;;;;;;18.89;59.54;100383.35;109465;1273;22394;-48
2023/05/05 07:16:12;;;;;;;7.00;4.00;;;;;;;18.95;60.01;100382.10;109550;1273;22460;-58
2023/05/05 07:18:39;;;;;;;6.90;3.30;;;;;;;19.07;60.28;100384.17;109589;1273;22732;-58
2023/05/05 07:21:06;;;;;;;8.50;3.90;;;;;;;19.24;59.39;100382.73;109537;1273;23294;-57
2023/05/05 07:23:36;;;;;;;9.80;3.20;;;;;;;19.36;58.14;100381.27;109710;1273;22351;-48
2023/05/05 07:26:03;;;;;;;5.70;3.40;;;;;;;19.44;56.30;100383.63;109690;1273;22379;-48
2023/05/05 07:28:30;;;;;;;7.00;3.60;;;;;;;19.45;55.42;100377.55;109558;1273;22415;-47
2023/05/05 07:30:58;;;;;;;7.30;3.50;;;;;;;19.46;55.12;100374.89;109647;1274;22412;-58
2023/05/05 07:33:25;;;;;;;5.90;2.80;;;;;;;19.52;54.30;100373.61;109691;1276;22368;-58
2023/05/05 07:35:52;;;;;;;6.80;3.10;;;;;;;19.57;52.08;100371.66;109683;1273;23249;-58
2023/05/05 07:38:19;;;;;;;4.90;2.80;;;;;;;19.60;53.02;100372.46;109784;1274;23122;-59
2023/05/05 07:40:47;;;;;;;8.10;3.60;;;;;;;19.69;52.61;100373.56;109792;1273;23003;-48
2023/05/05 07:43:16;;;;;;;7.10;3.00;;;;;;;19.77;52.24;100369.91;109347;1273;22423;-48
2023/05/05 07:45:43;;;;;;;4.40;3.10;;;;;;;19.83;51.37;100367.36;109322;1274;22431;-47
2023/05/05 07:48:10;;;;;;;6.30;3.10;;;;;;;19.90;51.17;100368.71;108751;1274;23728;-47
2023/05/05 07:50:39;;;;;;;7.50;2.60;;;;;;;19.97;51.44;100367.40;109628;1275;23087;-56
2023/05/05 07:53:07;;;;;;;5.50;2.60;;;;;;;20.03;50.95;100367.19;109309;1275;22971;-48
2023/05/05 07:55:41;;;;;;;6.60;3.50;;;;;;;20.04;50.88;100365.34;109504;1275;23174;-48
2023/05/05 07:58:09;;;;;;;11.00;3.00;;;;;;;20.11;51.20;100370.05;109599;1276;22376;-58
2023/05/05 08:00:38;;;;;;;4.60;3.20;;;;;;;20.21;50.76;100368.77;109481;1275;22384;-48
2023/05/05 08:03:07;;;;;;;7.50;2.80;;;;;;;20.32;50.29;100367.83;109622;1273;23462;-47
2023/05/05 08:05:46;;;;;;;3.30;2.50;;;;;;;20.42;50.11;100367.61;109482;1275;22373;-47
2023/05/05 08:08:15;;;;;;;7.10;2.40;;;;;;;20.57;49.91;100366.88;109423;1274;22395;-47
2023/05/05 08:10:42;;;;;;;7.10;2.40;;;;;;;20.80;50.21;100362.04;109424;1273;22477;-48
2023/05/05 08:13:15;;;;;;;6.00;2.60;;;;;;;21.04;49.56;100356.62;109621;1274;22364;-59
2023/05/05 08:15:43;;;;;;;7.40;2.80;;;;;;;21.23;48.54;100355.77;109642;1273;23259;-59
2023/05/05 08:18:10;;;;;;;10.40;3.00;;;;;;;21.30;48.03;100357.63;109595;1273;23286;-59
2023/05/05 08:20:37;;;;;;;4.60;2.60;;;;;;;21.37;48.38;100358.59;109667;1274;22399;-58
2023/05/05 08:23:05;;;;;;;3.20;2.50;;;;;;;21.48;48.05;100353.29;109572;1275;22237;-49
2023/05/05 08:25:33;;;;;;;7.80;2.40;;;;;;;21.64;47.53;100355.08;109659;1279;23232;-59
2023/05/05 08:28:00;;;;;;;5.30;2.20;;;;;;;21.69;46.55;100353.10;109732;1273;22730;-59
2023/05/05 08:30:27;;;;;;;4.60;2.20;;;;;;;21.71;45.80;100356.53;109744;1273;22343;-47
2023/05/05 08:32:54;;;;;;;5.60;1.80;;;;;;;21.71;45.97;100350.84;109805;1275;22157;-48
2023/05/05 08:35:21;;;;;;;5.50;2.10;;;;;;;21.72;45.40;100353.48;109789;1273;22512;-47
2023/05/05 08:37:49;;;;;;;5.90;2.70;;;;;;;21.64;45.86;100353.30;109785;1275;22413;-48
2023/05/05 08:40:16;;;;;;;8.40;3.10;;;;;;;21.53;46.05;100353.96;108844;1272;22445;-47
2023/05/05 08:42:51;;;;;;;9.40;2.70;;;;;;;21.50;45.67;100358.35;109673;1273;22383;-48
2023/05/05 08:45:23;;;;;;;8.50;2.70;;;;;;;21.47;45.83;100358.84;109433;1278;22475;-57
2023/05/05 08:47:51;;;;;;;5.20;2.50;;;;;;;21.47;46.01;100355.11;109368;1275;22372;-46
2023/05/05 08:50:18;;;;;;;6.00;2.70;;;;;;;21.57;45.83;100357.88;109012;1275;24186;-47
2023/05/05 08:52:45;;;;;;;2.30;1.80;;;;;;;21.65;46.50;100356.27;109361;1273;22338;-46
2023/05/05 08:55:25;;;;;;;8.60;1.70;;;;;;;21.72;45.08;100353.31;109739;1275;22925;-47
2023/05/05 08:57:56;;;;;;;4.80;2.10;;;;;;;21.73;43.36;100354.30;109888;1273;22366;-56
2023/05/05 09:00:25;;;;;;;2.00;1.60;;;;;;;21.69;42.76;100355.55;109779;1273;22243;-49
2023/05/05 09:02:56;;;;;;;3.20;1.60;;;;;;;21.65;41.70;100358.92;109680;1273;23121;-60
2023/05/05 09:05:25;;;;;;;3.80;2.10;;;;;;;21.66;41.94;100358.53;109470;1272;22374;-60
2023/05/05 09:07:54;;;;;;;4.10;1.90;;;;;;;21.82;42.73;100355.84;109677;1273;22602;-57
2023/05/05 09:10:21;;;;;;;5.10;1.90;;;;;;;21.98;42.67;100352.09;109482;1273;22208;-49
2023/05/05 09:12:50;;;;;;;4.20;1.70;;;;;;;22.08;42.00;100350.40;109282;1276;22340;-60
2023/05/05 09:15:21;;;;;;;3.20;1.80;;;;;;;22.20;41.43;100347.01;109223;1272;22492;-49
2023/05/05 09:17:55;;;;;;;3.80;1.70;;;;;;;22.37;41.29;100348.70;109085;1273;22233;-58
2023/05/05 09:20:30;;;;;;;3.80;1.60;;;;;;;22.51;41.57;100344.98;109480;1278;22364;-62
2023/05/05 09:23:19;;;;;;;2.20;1.60;;;;;;;22.71;41.68;100348.45;109536;1273;23081;-59
2023/05/05 09:26:04;;;;;;;5.50;1.70;;;;;;;22.87;40.32;100346.27;109613;1273;22494;-52
2023/05/05 09:28:32;;;;;;;3.20;1.90;;;;;;;23.06;41.37;100343.40;109283;1275;23263;-50
2023/05/05 09:31:12;;;;;;;3.10;1.80;;;;;;;23.22;41.58;100339.52;109540;1273;23348;-59
2023/05/05 09:33:40;;;;;;;6.90;2.20;;;;;;;23.32;41.10;100340.92;109849;1273;23057;-59
2023/05/05 09:36:07;;;;;;;2.00;1.80;;;;;;;23.41;40.57;100339.26;109399;1275;22401;-50
2023/05/05 09:38:35;;;;;;;8.90;2.30;;;;;;;23.38;39.48;100335.34;109586;1277;22387;-50
2023/05/05 09:41:04;;;;;;;2.60;1.70;;;;;;;23.29;39.35;100336.27;109259;1278;22658;-50
2023/05/05 09:43:55;;;;;;;5.90;2.30;;;;;;;23.10;38.59;100333.21;109145;1272;22333;-60
2023/05/05 09:46:51;;;;;;;2.40;1.60;;;;;;;22.74;39.55;100339.81;109136;1279;22511;-51
2023/05/05 09:49:25;;;;;;;1.50;1.40;;;;;;;22.64;40.13;100338.32;109513;1273;22411;-59
2023/05/05 09:51:53;;;;;;;3.50;1.80;;;;;;;22.71;40.09;100337.09;108672;1274;24190;-50
2023/05/05 09:54:35;;;;;;;2.10;1.60;;;;;;;22.82;38.68;100333.70;108774;1275;22264;-58
2023/05/05 09:57:07;;;;;;;4.50;1.60;;;;;;;22.82;37.79;100331.39;108224;1275;24794;-58
2023/05/05 09:59:41;;;;;;;4.60;1.60;;;;;;;22.85;38.92;100333.02;108541;1274;22724;-58
2023/05/05 10:02:14;;;;;;;2.30;1.50;;;;;;;22.99;38.77;100328.77;108734;1273;22609;-49
2023/05/05 10:04:46;;;;;;;2.60;1.30;;;;;;;23.13;38.47;100324.50;108931;1275;23165;-51
2023/05/05 10:07:24;;;;;;;5.40;2.10;;;;;;;23.30;37.68;100325.73;109429;1273;22546;-59
2023/05/05 10:10:03;;;;;;;3.20;1.80;;;;;;;23.35;37.39;100327.42;109664;1275;22822;-59
2023/05/05 10:12:31;;;;;;;5.80;1.60;;;;;;;23.39;37.68;100325.52;109556;1275;22396;-59
2023/05/05 10:14:59;;;;;;;5.00;1.50;;;;;;;23.38;36.96;100323.91;109510;1274;22711;-53
2023/05/05 10:17:29;;;;;;;8.10;2.00;;;;;;;23.23;36.14;100317.41;109592;1273;23285;-50
2023/05/05 10:19:58;;;;;;;2.10;1.40;;;;;;;23.02;35.47;100317.79;109655;1279;22214;-50
2023/05/05 10:22:26;;;;;;;3.60;1.70;;;;;;;22.70;35.53;100324.13;109726;1279;22291;-50
2023/05/05 10:24:56;;;;;;;2.20;1.70;;;;;;;22.36;36.18;100319.41;109560;1281;22537;-58
2023/05/05 10:27:23;;;;;;;4.80;2.30;;;;;;;22.20;36.60;100318.27;109657;1279;22369;-49
2023/05/05 10:30:03;;;;;;;2.30;1.90;;;;;;;22.41;36.93;100316.91;109697;1272;22864;-50
2023/05/05 10:32:52;;;;;;;2.70;1.60;;;;;;;22.90;36.18;100314.65;109664;1275;22852;-59
2023/05/05 10:35:35;;;;;;;2.80;1.40;;;;;;;23.51;33.90;100311.67;109654;1279;22216;-50
2023/05/05 10:38:02;;;;;;;7.30;1.40;;;;;;;23.88;33.67;100309.53;109693;1277;23055;-58
2023/05/05 10:40:29;;;;;;;4.10;2.20;;;;;;;24.24;34.21;100316.80;109651;1279;22339;-59
2023/05/05 10:42:56;;;;;;;4.10;2.00;;;;;;;24.54;36.14;100306.56;109724;1278;22694;-50
2023/05/05 10:45:23;;;;;;;2.50;1.40;;;;;;;24.81;36.01;100304.04;109716;1278;23088;-51
2023/05/05 10:47:52;;;;;;;2.30;1.70;;;;;;;25.12;34.29;100301.52;109777;1277;22844;-59
2023/05/05 10:50:22;;;;;;;5.70;1.80;;;;;;;25.34;33.66;100293.25;109878;1279;23395;-58
2023/05/05 10:53:08;;;;;;;5.90;1.80;;;;;;;25.46;33.76;100295.16;110028;1278;22300;-59
2023/05/05 10:55:50;;;;;;;8.40;2.40;;;;;;;25.84;33.70;100297.98;109998;1276;22521;-59
2023/05/05 10:58:34;;;;;;;2.00;1.60;;;;;;;26.40;32.48;100289.80;108251;1279;22659;-58
2023/05/05 11:01:13;;;;;;;4.90;1.90;;;;;;;26.55;31.28;100296.42;108064;1279;22537;-59
2023/05/05 11:03:40;;;;;;;2.10;1.60;;;;;;;26.40;31.33;100290.47;109503;1278;22337;-51
2023/05/05 11:06:07;;;;;;;3.20;1.90;;;;;;;26.40;31.74;100284.91;109992;1278;22159;-50
2023/05/05 11:08:44;;;;;;;6.80;1.70;;;;;;;26.37;32.24;100287.99;109087;1273;23120;-49
2023/05/05 11:11:11;;;;;;;3.20;2.20;;;;;;;25.95;33.09;100284.24;109990;1279;22259;-49
2023/05/05 11:13:38;;;;;;;5.70;1.80;;;;;;;25.59;34.03;100280.45;108168;1279;22140;-50
2023/05/05 11:16:41;;;;;;;4.60;2.10;;;;;;;25.52;33.96;100281.41;110072;1276;22422;-59
2023/05/05 11:19:28;;;;;;;;;;;;;;;25.45;33.48;100282.35;108212;1279;22514;-50
2023/05/05 11:21:58;;;;;;;2.40;1.80;;;;;;;25.45;33.78;100278.80;108367;1279;22529;-48
2023/05/05 11:24:27;;;;;;;3.70;2.20;;;;;;;25.52;33.78;100276.63;107069;1279;22579;-59
2023/05/05 11:26:54;;;;;;;4.70;1.70;;;;;;;25.55;33.58;100276.27;110056;1273;23074;-59
2023/05/05 11:29:21;;;;;;;5.50;1.80;;;;;;;25.44;33.22;100273.34;109977;1279;22170;-52
2023/05/05 11:32:14;;;;;;;2.60;1.60;;;;;;;25.21;32.81;100273.13;109944;1274;22330;-59
2023/05/05 11:34:47;;;;;;;;;;;;;;;24.83;33.21;100273.44;109961;1279;22521;-59
2023/05/05 11:37:17;;;;;;;2.00;1.60;;;;;;;24.56;34.03;100274.48;109949;1279;22234;-58
2023/05/05 11:40:03;;;;;;;8.80;2.00;;;;;;;24.41;34.39;100275.18;108751;1273;22547;-59
2023/05/05 11:42:30;;;;;;;3.80;1.90;;;;;;;24.44;35.37;100270.21;107387;1273;22524;-57
2023/05/05 11:44:57;;;;;;;2.50;1.60;;;;;;;24.50;35.16;100266.31;109380;1279;22329;-59
2023/05/05 11:47:25;;;;;;;3.40;1.50;;;;;;;24.52;35.84;100269.59;109973;1279;22280;-59
2023/05/05 11:49:52;;;;;;;2.60;1.70;;;;;;;24.51;35.60;100266.96;109971;1279;22307;-59
2023/05/05 11:52:19;;;;;;;3.60;2.00;;;;;;;24.40;35.16;100263.31;110127;1278;22285;-59
2023/05/05 11:54:47;;;;;;;3.10;2.20;;;;;;;24.22;34.06;100264.66;110037;1279;22270;-59
2023/05/05 11:57:16;;;;;;;4.40;2.00;;;;;;;24.05;34.02;100263.69;110047;1279;23011;-59
